Thorco Crystal — V2BP9 — position and weather

sailwx.info

Track history (hours):
 
Tides and Currents Weather Stations Pressure Air Temp Water Temp Dewpoint Dewpoint Depression Visibility Wind Speed Wind Dir Waves Ship Positions

Thorco Crystal

Last reported at 2015-Jun-24 12:20 UTC. Time now 2015-Jul-04 18:59 UTC.
Position N 01°09' E 103°45'.
Warning: this ship's position is 10 days out of date.

Length 145 m; draft 7.3 m.

Type: Ship. MMSI: 304736000.

Date/timePositionNaut miles runAvg speedWind from/ knotsBaromVisibWave heightAir tempDewpointWater temp
2015-Jun-24 12:20N 01°09' E 103°45'910.8
2015-Jun-24 11:31N 01°14' E 103°53'2 1.7
2015-Jun-24 10:26N 01°16' E 103°53'0 0.0
2015-Jun-24 09:29N 01°16' E 103°53'0 0.0
2015-Jun-24 08:26N 01°16' E 103°53'0 0.0
2015-Jun-24 07:29N 01°15' E 103°53'0 0.0
2015-Jun-24 06:32N 01°15' E 103°53'0 0.1
2015-Jun-24 05:23N 01°15' E 103°53'0 0.0
2015-Jun-24 04:32N 01°15' E 103°53'0 0.0
2015-Jun-24 02:20N 01°15' E 103°53'0 0.0
2015-Jun-24 00:26N 01°15' E 103°53'2 1.9
2015-Jun-23 23:33N 01°14' E 103°53'8 7.8
2015-Jun-23 22:33N 01°16' E 104°00'  
2015-Jun-17 08:33N 23°47' E 119°59'1311.5
2015-Jun-17 07:27N 23°59' E 120°05'33810.2
2015-Jun-15 22:28N 29°09' E 122°36'117 9.0
2015-Jun-15 09:24N 31°05' E 122°23'1011.9
2015-Jun-15 08:33N 31°10' E 122°12'1514.7
2015-Jun-15 07:33N 31°15' E 121°56'1414.2
2015-Jun-15 06:33N 31°20' E 121°41'1211.7
2015-Jun-15 05:33N 31°26' E 121°29'7 6.3
2015-Jun-15 04:29N 31°30' E 121°22'0 0.0
2015-Jun-15 03:29N 31°30' E 121°22'0 0.0
2015-Jun-15 02:29N 31°30' E 121°22'0 0.0
2015-Jun-15 01:32N 31°30' E 121°22'0 0.0
2015-Jun-15 00:32N 31°30' E 121°22'0 0.0
2015-Jun-14 23:32N 31°30' E 121°22'0 0.0
2015-Jun-14 22:29N 31°30' E 121°22'0 0.0
2015-Jun-14 21:32N 31°30' E 121°22'0 0.0
2015-Jun-14 20:32N 31°30' E 121°22'0 0.0
2015-Jun-14 19:29N 31°30' E 121°22'0 0.0
2015-Jun-14 18:32N 31°30' E 121°22'0 0.0
2015-Jun-14 17:20N 31°30' E 121°22'0 0.0
2015-Jun-14 16:32N 31°30' E 121°22'0 0.0
2015-Jun-14 15:29N 31°30' E 121°22'0 0.0
2015-Jun-14 14:29N 31°30' E 121°22'0 0.0
2015-Jun-14 13:29N 31°30' E 121°22'  
Track history (hours):
 
Tides and Currents Weather Stations Pressure Air Temp Water Temp Dewpoint Dewpoint Depression Visibility Wind Speed Wind Dir Waves Ship Positions

Thorco Crystal

Last reported at 2015-Jun-24 12:20 UTC. Time now 2015-Jul-04 18:59 UTC.
Position N 01°09' E 103°45'.
Warning: this ship's position is 10 days out of date.

Length 145 m; draft 7.3 m.

Type: Ship. MMSI: 304736000.

Date/timePositionNaut miles runAvg speedWind from/ knotsBaromVisibWave heightAir tempDewpointWater temp
2015-Jun-24 12:20N 01°09' E 103°45'910.8
2015-Jun-24 11:31N 01°14' E 103°53'2 1.7
2015-Jun-24 10:26N 01°16' E 103°53'0 0.0
2015-Jun-24 09:29N 01°16' E 103°53'0 0.0
2015-Jun-24 08:26N 01°16' E 103°53'0 0.0
2015-Jun-24 07:29N 01°15' E 103°53'0 0.0
2015-Jun-24 06:32N 01°15' E 103°53'0 0.1
2015-Jun-24 05:23N 01°15' E 103°53'0 0.0
2015-Jun-24 04:32N 01°15' E 103°53'0 0.0
2015-Jun-24 02:20N 01°15' E 103°53'0 0.0
2015-Jun-24 00:26N 01°15' E 103°53'2 1.9
2015-Jun-23 23:33N 01°14' E 103°53'8 7.8
2015-Jun-23 22:33N 01°16' E 104°00'  
2015-Jun-17 08:33N 23°47' E 119°59'1311.5
2015-Jun-17 07:27N 23°59' E 120°05'33810.2
2015-Jun-15 22:28N 29°09' E 122°36'117 9.0
2015-Jun-15 09:24N 31°05' E 122°23'1011.9
2015-Jun-15 08:33N 31°10' E 122°12'1514.7
2015-Jun-15 07:33N 31°15' E 121°56'1414.2
2015-Jun-15 06:33N 31°20' E 121°41'1211.7
2015-Jun-15 05:33N 31°26' E 121°29'7 6.3
2015-Jun-15 04:29N 31°30' E 121°22'0 0.0
2015-Jun-15 03:29N 31°30' E 121°22'0 0.0
2015-Jun-15 02:29N 31°30' E 121°22'0 0.0
2015-Jun-15 01:32N 31°30' E 121°22'0 0.0
2015-Jun-15 00:32N 31°30' E 121°22'0 0.0
2015-Jun-14 23:32N 31°30' E 121°22'0 0.0
2015-Jun-14 22:29N 31°30' E 121°22'0 0.0
2015-Jun-14 21:32N 31°30' E 121°22'0 0.0
2015-Jun-14 20:32N 31°30' E 121°22'0 0.0
2015-Jun-14 19:29N 31°30' E 121°22'0 0.0
2015-Jun-14 18:32N 31°30' E 121°22'0 0.0
2015-Jun-14 17:20N 31°30' E 121°22'0 0.0
2015-Jun-14 16:32N 31°30' E 121°22'0 0.0
2015-Jun-14 15:29N 31°30' E 121°22'0 0.0
2015-Jun-14 14:29N 31°30' E 121°22'0 0.0
2015-Jun-14 13:29N 31°30' E 121°22'  

Dump ship's entire track history